< < Back
Terminal Aerodrome Forecast


Current Version              Previous Versions:   1  2  3  4  5  6  7  8  9  

Terminal Aerodrome Forecast

683
FTUS44 KMRX 240522
TAFCHA
TAF
KCHA 240522Z 2406/2506 01002KT P6SM SKC
     FM241700 17008KT P6SM FEW060
     FM250100 19004KT P6SM SCT050 BKN150=

Latest METAR

856
SAUS80 KWBC 250300 RRA
MTRCHA
METAR KCHA 250253Z 00000KT 10SM SCT150 BKN250 21/09 A2986 RMK AO2 SLP105
T02110094 50002 $


USA.gov is the U.S. government's official web portal to all federal, state and local government web resources and services.